Time;durP1;ratioP1;P1;durP2;ratioP2;P2;SDS_P1;SDS_P2;PMS_P1;PMS_P2;Temp;Humidity;BMP_temperature;BMP_pressure;BME280_temperature;BME280_humidity;BME280_pressure;Samples;Min_cycle;Max_cycle;Signal;HPM_P1;HPM_P2
2022/09/07 00:03:29;;;;;;;7.93;2.77;;;15.30;99.90;;;;;;10216298;29;20218;-88
2022/09/07 00:08:32;;;;;;;5.57;3.13;;;15.50;99.90;;;;;;10231749;29;20319;-88
2022/09/07 00:13:37;;;;;;;6.67;2.53;;;14.70;99.90;;;;;;10215397;28;20203;-88
2022/09/07 00:18:39;;;;;;;6.43;2.47;;;14.60;99.90;;;;;;10228085;28;20289;-88
2022/09/07 00:23:48;;;;;;;6.83;2.83;;;14.70;99.90;;;;;;10248392;28;20241;-88
2022/09/07 00:28:51;;;;;;;9.07;3.10;;;13.90;99.90;;;;;;10198401;29;20386;-88
2022/09/07 00:33:57;;;;;;;3.50;2.40;;;13.30;99.90;;;;;;10192430;29;20269;-87
2022/09/07 00:38:59;;;;;;;7.83;2.80;;;13.70;99.90;;;;;;10209201;29;20305;-88
2022/09/07 00:44:39;;;;;;;4.00;2.50;;;14.50;99.90;;;;;;10239608;29;20250;-88
2022/09/07 00:49:46;;;;;;;4.53;3.00;;;14.60;99.90;;;;;;10192059;29;20230;-88
2022/09/07 00:54:53;;;;;;;5.23;2.70;;;14.40;99.90;;;;;;10208678;28;20242;-88
2022/09/07 00:59:56;;;;;;;5.50;2.73;;;14.90;99.90;;;;;;10225164;29;20660;-88
2022/09/07 01:05:13;;;;;;;3.47;2.40;;;15.00;99.90;;;;;;10217085;29;20255;-87
2022/09/07 01:10:16;;;;;;;9.13;3.10;;;15.10;99.90;;;;;;10230441;28;20240;-88
2022/09/07 01:15:22;;;;;;;8.03;2.83;;;13.90;99.90;;;;;;10231059;29;20206;-88
2022/09/07 01:20:38;;;;;;;4.63;2.70;;;14.70;99.90;;;;;;10213363;28;20797;-88
2022/09/07 01:26:03;;;;;;;5.77;2.63;;;14.70;99.90;;;;;;10229143;29;20646;-88
2022/09/07 01:31:24;;;;;;;6.47;2.97;;;14.60;99.90;;;;;;10196146;29;20253;-88
2022/09/07 01:36:36;;;;;;;6.43;2.53;;;14.40;99.90;;;;;;10200203;29;20242;-87
2022/09/07 01:42:03;;;;;;;4.73;2.50;;;14.90;99.90;;;;;;10198550;29;20679;-87
2022/09/07 01:47:08;;;;;;;3.13;2.60;;;15.00;99.90;;;;;;10207351;29;20326;-87
2022/09/07 01:52:28;;;;;;;6.47;2.20;;;15.00;99.50;;;;;;10210345;29;20619;-87
2022/09/07 01:57:40;;;;;;;4.60;2.40;;;14.70;99.90;;;;;;10207034;29;20293;-88
2022/09/07 02:02:57;;;;;;;6.17;2.33;;;14.80;99.90;;;;;;10198197;29;20642;-87
2022/09/07 02:08:18;;;;;;;4.27;2.43;;;14.90;99.90;;;;;;10198192;29;20320;-87
2022/09/07 02:13:31;;;;;;;2.77;2.20;;;14.80;99.70;;;;;;10197575;29;20700;-88
2022/09/07 02:18:39;;;;;;;4.60;2.10;;;14.70;99.80;;;;;;10243005;28;21188;-88
2022/09/07 02:23:53;;;;;;;5.40;2.27;;;14.90;99.10;;;;;;10236595;28;20210;-88
2022/09/07 02:28:56;;;;;;;4.97;2.40;;;14.50;99.90;;;;;;10237649;28;20629;-88
2022/09/07 02:34:00;;;;;;;5.33;2.50;;;14.50;99.90;;;;;;10235710;29;20718;-88
2022/09/07 02:39:03;;;;;;;7.47;3.10;;;14.20;99.90;;;;;;10196442;29;20321;-88
2022/09/07 02:44:12;;;;;;;4.17;2.87;;;14.20;99.90;;;;;;10214558;29;20241;-88
2022/09/07 02:49:53;;;;;;;3.73;2.90;;;14.30;99.90;;;;;;10234944;29;20291;-88
2022/09/07 02:55:22;;;;;;;5.43;2.53;;;14.70;99.90;;;;;;10188923;29;20282;-87
2022/09/07 03:00:25;;;;;;;3.87;2.60;;;14.90;99.30;;;;;;10196302;29;20298;-88
2022/09/07 03:05:49;;;;;;;4.90;2.40;;;14.90;99.40;;;;;;10245798;29;20646;-87
2022/09/07 03:10:53;;;;;;;5.80;2.60;;;14.40;99.90;;;;;;10219896;28;20233;-87
2022/09/07 03:15:56;;;;;;;6.33;2.77;;;14.60;99.90;;;;;;10208660;29;20241;-87
2022/09/07 03:20:58;;;;;;;4.73;2.63;;;14.20;99.90;;;;;;10195129;29;20238;-88
2022/09/07 03:26:01;;;;;;;6.90;2.97;;;14.00;99.90;;;;;;10218536;29;20267;-88
2022/09/07 03:31:03;;;;;;;7.57;2.33;;;13.80;99.90;;;;;;10225912;29;20284;-88
2022/09/07 03:36:06;;;;;;;6.77;2.67;;;14.20;99.90;;;;;;10194530;29;20244;-88
2022/09/07 03:41:09;;;;;;;9.30;2.70;;;13.80;99.90;;;;;;10219204;28;20298;-87
2022/09/07 03:46:13;;;;;;;7.00;2.43;;;14.00;99.90;;;;;;10250007;29;20270;-88
2022/09/07 03:51:17;;;;;;;5.90;2.63;;;14.00;99.90;;;;;;10234931;28;20235;-87
2022/09/07 03:56:21;;;;;;;5.17;2.63;;;13.90;99.90;;;;;;10231824;28;20301;-88
2022/09/07 04:01:25;;;;;;;4.50;3.17;;;13.70;99.90;;;;;;10240986;28;20235;-87
2022/09/07 04:06:28;;;;;;;6.73;3.07;;;13.70;99.90;;;;;;10192942;29;20255;-87
2022/09/07 04:11:31;;;;;;;8.60;3.57;;;13.30;99.90;;;;;;10210211;29;20652;-87
2022/09/07 04:16:34;;;;;;;5.70;3.27;;;13.70;99.90;;;;;;10210943;28;20241;-87
2022/09/07 04:21:37;;;;;;;3.93;2.63;;;13.60;99.90;;;;;;10221104;29;20660;-88
2022/09/07 04:26:39;;;;;;;5.90;2.70;;;13.40;99.90;;;;;;10193166;29;20258;-87
2022/09/07 04:31:42;;;;;;;7.37;2.83;;;13.70;99.90;;;;;;10230026;29;20614;-88
2022/09/07 04:36:45;;;;;;;7.07;3.00;;;14.00;99.90;;;;;;10217474;28;20664;-87
2022/09/07 04:41:47;;;;;;;33.50;4.60;;;13.90;99.90;;;;;;10196865;29;20669;-87
2022/09/07 04:46:50;;;;;;;15.57;3.20;;;13.80;99.90;;;;;;10246083;28;20648;-86
2022/09/07 04:51:52;;;;;;;6.73;2.90;;;13.60;99.90;;;;;;10208616;29;20266;-87
2022/09/07 04:56:55;;;;;;;9.37;3.30;;;13.50;99.90;;;;;;10196388;28;20791;-87
2022/09/07 05:01:58;;;;;;;24.37;3.87;;;13.20;99.90;;;;;;10214491;29;20254;-88
2022/09/07 05:07:00;;;;;;;7.40;3.27;;;13.40;99.90;;;;;;10211854;29;20802;-87
2022/09/07 05:12:03;;;;;;;11.07;3.53;;;13.80;99.90;;;;;;10220000;29;20247;-88
2022/09/07 05:17:06;;;;;;;7.83;3.10;;;13.80;99.90;;;;;;10205345;28;20276;-87
2022/09/07 05:22:09;;;;;;;7.30;2.73;;;13.80;99.90;;;;;;10197352;29;20661;-87
2022/09/07 05:27:11;;;;;;;9.87;2.40;;;13.80;99.90;;;;;;10191760;29;20270;-87
2022/09/07 05:32:14;;;;;;;8.27;2.80;;;14.10;99.90;;;;;;10191409;29;20860;-87
2022/09/07 05:37:16;;;;;;;11.07;2.70;;;13.80;99.90;;;;;;10222314;28;20242;-87
2022/09/07 05:42:18;;;;;;;4.00;2.57;;;13.70;99.90;;;;;;10236132;28;20691;-87
2022/09/07 05:47:21;;;;;;;7.83;2.90;;;15.00;99.80;;;;;;10234209;28;20680;-87
2022/09/07 05:52:24;;;;;;;5.70;2.70;;;15.80;97.40;;;;;;10192524;29;20627;-87
2022/09/07 05:57:26;;;;;;;3.80;2.60;;;15.90;96.30;;;;;;10207450;29;20708;-88
2022/09/07 06:02:28;;;;;;;3.73;2.40;;;16.20;96.20;;;;;;10209967;29;20651;-87
2022/09/07 06:07:34;;;;;;;4.53;2.53;;;16.50;95.50;;;;;;10197187;29;20697;-88
2022/09/07 06:12:36;;;;;;;5.87;2.80;;;16.60;95.50;;;;;;10210406;28;20343;-87
2022/09/07 06:17:39;;;;;;;7.33;2.73;;;16.70;95.00;;;;;;10247920;28;20923;-87
2022/09/07 06:22:41;;;;;;;5.40;2.67;;;17.10;94.40;;;;;;10207230;29;20239;-87
2022/09/07 06:27:47;;;;;;;6.47;2.27;;;16.90;95.60;;;;;;10198335;29;20807;-87
2022/09/07 06:32:50;;;;;;;6.23;2.33;;;17.00;93.80;;;;;;10206639;29;20238;-87
2022/09/07 06:37:52;;;;;;;6.07;2.50;;;16.90;94.60;;;;;;10214651;29;20262;-87
2022/09/07 06:42:55;;;;;;;3.97;2.80;;;17.10;94.20;;;;;;10208531;28;20290;-94
2022/09/07 06:47:57;;;;;;;6.07;2.40;;;16.50;93.40;;;;;;10197925;29;20250;-94
2022/09/07 06:53:00;;;;;;;8.80;2.57;;;16.90;93.00;;;;;;10237012;29;20206;-95
2022/09/07 06:58:23;;;;;;;7.53;3.20;;;16.80;93.40;;;;;;10214247;29;20241;-88
2022/09/07 07:03:27;;;;;;;5.30;2.37;;;15.40;96.80;;;;;;10224473;29;20755;-96
2022/09/07 07:08:31;;;;;;;8.70;2.50;;;16.20;99.90;;;;;;10217585;28;20650;-88
2022/09/07 07:13:35;;;;;;;7.90;3.60;;;17.50;94.80;;;;;;10224436;29;20232;-95
2022/09/07 07:18:56;;;;;;;8.07;3.10;;;17.30;90.40;;;;;;10220637;29;20242;-96
2022/09/07 07:24:04;;;;;;;5.00;2.70;;;17.40;91.50;;;;;;10279570;28;20269;-96
2022/09/07 07:29:14;;;;;;;7.70;3.10;;;17.20;92.00;;;;;;10232200;29;20253;-96
2022/09/07 07:34:21;;;;;;;10.70;2.63;;;17.40;90.30;;;;;;10261814;29;20199;-95
2022/09/07 07:39:27;;;;;;;5.63;2.60;;;17.60;90.10;;;;;;10246333;29;20237;-95
2022/09/07 07:45:02;;;;;;;9.47;2.73;;;17.80;89.80;;;;;;10245150;28;20223;-95
2022/09/07 07:50:27;;;;;;;4.57;2.70;;;17.60;87.50;;;;;;10219378;28;20219;-96
2022/09/07 07:55:36;;;;;;;3.17;2.60;;;18.20;87.50;;;;;;10244722;28;20249;-95
2022/09/07 08:00:47;;;;;;;6.70;2.70;;;18.30;85.60;;;;;;10201625;28;20214;-90
2022/09/07 08:06:03;;;;;;;4.97;2.30;;;18.60;84.00;;;;;;10215843;29;20278;-90
2022/09/07 08:11:09;;;;;;;6.60;2.83;;;19.20;81.10;;;;;;10209690;29;20242;-90
2022/09/07 08:16:12;;;;;;;9.50;2.50;;;19.30;80.80;;;;;;10246867;29;20238;-90
2022/09/07 08:21:15;;;;;;;5.97;2.50;;;19.80;78.60;;;;;;10229951;29;20283;-89
2022/09/07 08:26:18;;;;;;;6.05;2.75;;;19.50;79.40;;;;;;10230598;28;20250;-90
2022/09/07 08:31:21;;;;;;;6.13;2.47;;;20.20;80.60;;;;;;10221832;29;20234;-90
2022/09/07 08:36:23;;;;;;;9.23;2.60;;;20.50;79.20;;;;;;10205561;29;20320;-89
2022/09/07 08:42:10;;;;;;;8.95;2.60;;;20.60;78.70;;;;;;10212185;28;20636;-89
2022/09/07 08:47:27;;;;;;;3.88;2.80;;;20.60;76.40;;;;;;10243396;28;20233;-89
2022/09/07 08:52:54;;;;;;;3.33;2.03;;;20.70;76.90;;;;;;10273199;28;20217;-89
2022/09/07 08:58:13;;;;;;;3.97;2.00;;;20.90;77.20;;;;;;10269677;28;20222;-88
2022/09/07 09:03:36;;;;;;;5.40;2.40;;;20.80;75.70;;;;;;10307818;28;20186;-90
2022/09/07 09:09:31;;;;;;;3.80;2.08;;;20.80;77.10;;;;;;10250856;28;20218;-88
2022/09/07 09:15:04;;;;;;;7.00;2.00;;;20.70;76.40;;;;;;10248685;28;20187;-88
2022/09/07 09:20:18;;;;;;;5.55;2.10;;;20.70;77.80;;;;;;10242786;23;20705;-80
2022/09/07 09:25:30;;;;;;;5.43;2.00;;;20.70;76.60;;;;;;10226317;29;20237;-80
2022/09/07 09:30:32;;;;;;;4.10;2.58;;;20.80;77.10;;;;;;10212346;29;20290;-81
2022/09/07 09:35:35;;;;;;;4.60;1.80;;;20.90;76.80;;;;;;10206107;29;20266;-82
2022/09/07 09:40:38;;;;;;;4.18;2.33;;;20.90;74.70;;;;;;10207610;29;20226;-80
2022/09/07 09:45:44;;;;;;;4.63;2.40;;;20.90;76.70;;;;;;10207262;29;20629;-81
2022/09/07 09:51:07;;;;;;;3.60;2.20;;;20.90;75.60;;;;;;10219710;29;20703;-80
2022/09/07 09:56:41;;;;;;;3.50;1.52;;;20.90;73.90;;;;;;10260758;28;20679;-80
2022/09/07 10:01:48;;;;;;;3.58;2.15;;;20.90;76.50;;;;;;10230651;29;20223;-80
2022/09/07 10:07:23;;;;;;;6.32;2.03;;;20.90;76.80;;;;;;10238035;28;20254;-80
2022/09/07 10:12:31;;;;;;;8.45;2.70;;;21.00;75.50;;;;;;10209353;29;20239;-82
2022/09/07 10:17:35;;;;;;;3.72;2.50;;;21.10;75.90;;;;;;10212533;29;20262;-82
2022/09/07 10:22:39;;;;;;;2.05;1.60;;;21.20;76.00;;;;;;10211973;29;20258;-81
2022/09/07 10:27:44;;;;;;;9.13;2.28;;;21.20;74.20;;;;;;10239069;29;20250;-84
2022/09/07 10:33:11;;;;;;;2.90;1.70;;;21.40;68.20;;;;;;10238479;29;20274;-80
2022/09/07 10:38:17;;;;;;;6.38;2.00;;;21.50;73.40;;;;;;10209978;29;20655;-83
2022/09/07 10:43:48;;;;;;;3.22;1.83;;;21.50;72.30;;;;;;10210783;29;20243;-79
2022/09/07 10:49:17;;;;;;;4.65;1.98;;;21.40;73.80;;;;;;10211529;29;20262;-80
2022/09/07 10:54:45;;;;;;;3.67;1.80;;;21.70;72.70;;;;;;10210966;29;20226;-80
2022/09/07 11:00:13;;;;;;;4.35;1.90;;;21.80;71.90;;;;;;10207472;29;20230;-80
2022/09/07 11:05:27;;;;;;;56.17;6.15;;;21.90;71.80;;;;;;10208787;29;20651;-80
2022/09/07 11:10:54;;;;;;;4.85;1.83;;;22.00;70.60;;;;;;10207140;29;21080;-81
2022/09/07 11:16:05;;;;;;;3.10;1.52;;;21.80;71.60;;;;;;10210723;29;20670;-80
2022/09/07 11:21:15;;;;;;;13.25;1.80;;;21.80;72.30;;;;;;10211658;29;20285;-80
2022/09/07 11:26:44;;;;;;;2.20;1.33;;;21.60;72.50;;;;;;10221344;29;20254;-80
2022/09/07 11:31:53;;;;;;;4.78;1.73;;;21.30;73.60;;;;;;10209934;29;20235;-79
2022/09/07 11:37:08;;;;;;;2.28;1.50;;;21.20;67.00;;;;;;10210885;29;20247;-79
2022/09/07 11:42:20;;;;;;;7.78;1.77;;;21.20;75.10;;;;;;10219404;29;20250;-79
2022/09/07 11:47:54;;;;;;;5.78;1.80;;;21.20;70.60;;;;;;10210328;29;20691;-79
2022/09/07 11:53:06;;;;;;;7.82;1.55;;;21.20;73.70;;;;;;10238617;29;20226;-80
2022/09/07 11:58:46;;;;;;;6.38;1.75;;;21.40;73.90;;;;;;10201527;29;20233;-81
2022/09/07 12:04:11;;;;;;;2.08;1.42;;;21.30;74.40;;;;;;10206388;29;20270;-82
2022/09/07 12:09:54;;;;;;;4.47;1.65;;;21.50;72.40;;;;;;10206268;29;20247;-82
2022/09/07 12:15:30;;;;;;;2.63;1.50;;;21.60;73.00;;;;;;10206895;29;20231;-81
2022/09/07 12:20:39;;;;;;;3.97;1.65;;;21.40;74.50;;;;;;10162008;29;20275;-80
2022/09/07 12:25:47;;;;;;;5.88;2.28;;;21.50;69.30;;;;;;10166519;29;20854;-80
2022/09/07 12:31:01;;;;;;;2.90;1.88;;;21.40;69.90;;;;;;10170728;29;20294;-79
2022/09/07 12:36:30;;;;;;;1.80;1.55;;;21.50;73.80;;;;;;10184308;29;20740;-80
2022/09/07 12:41:41;;;;;;;4.45;1.75;;;21.40;74.70;;;;;;10143531;29;20326;-80
2022/09/07 12:46:46;;;;;;;5.45;1.92;;;21.40;74.10;;;;;;10165793;29;20838;-80
2022/09/07 12:52:18;;;;;;;2.38;1.42;;;21.20;73.90;;;;;;10167686;29;20270;-79
2022/09/07 12:57:51;;;;;;;5.00;1.42;;;21.30;75.60;;;;;;10165517;29;20288;-79
2022/09/07 13:03:19;;;;;;;13.25;2.20;;;21.40;75.20;;;;;;10174786;29;20309;-79
2022/09/07 13:09:09;;;;;;;2.28;1.77;;;21.50;74.20;;;;;;10167633;29;20267;-80
2022/09/07 13:14:14;;;;;;;2.85;1.80;;;21.40;70.40;;;;;;10167259;29;20239;-79
2022/09/07 13:19:49;;;;;;;6.13;1.85;;;21.30;69.60;;;;;;10224854;28;20735;-79
2022/09/07 13:24:54;;;;;;;1.48;1.25;;;21.40;69.60;;;;;;10210127;29;20239;-79
2022/09/07 13:30:01;;;;;;;2.38;1.67;;;21.30;76.00;;;;;;10239238;29;20647;-80
2022/09/07 13:35:22;;;;;;;3.25;2.03;;;21.40;76.00;;;;;;10228822;29;20238;-80
2022/09/07 13:40:32;;;;;;;1.77;1.35;;;21.40;69.50;;;;;;10244788;28;20302;-80
2022/09/07 13:45:52;;;;;;;3.67;1.70;;;21.50;74.10;;;;;;10224899;29;20296;-80
2022/09/07 13:51:05;;;;;;;3.72;1.67;;;21.40;77.50;;;;;;10255052;28;20309;-80
2022/09/07 13:56:52;;;;;;;4.68;1.42;;;21.60;74.30;;;;;;10254495;28;20233;-81
2022/09/07 14:01:56;;;;;;;3.50;1.67;;;21.50;73.70;;;;;;10183604;29;20242;-84
2022/09/07 14:07:25;;;;;;;1.30;1.20;;;21.50;75.90;;;;;;10214160;29;20226;-80
2022/09/07 14:12:29;;;;;;;1.45;1.17;;;21.50;76.90;;;;;;10194454;29;20302;-80
2022/09/07 14:17:32;;;;;;;5.97;1.98;;;21.40;74.20;;;;;;10213283;29;20274;-79
2022/09/07 14:22:34;;;;;;;13.43;1.73;;;21.60;70.40;;;;;;10197161;29;20297;-80
2022/09/07 14:27:42;;;;;;;5.93;1.65;;;21.60;73.30;;;;;;10213880;29;20255;-80
2022/09/07 14:32:50;;;;;;;3.25;2.17;;;21.60;75.00;;;;;;9857569;28;10000515;-79
2022/09/07 14:37:57;;;;;;;3.92;1.48;;;21.50;69.30;;;;;;10217383;28;20269;-80
2022/09/07 14:43:00;;;;;;;2.80;1.60;;;21.50;71.50;;;;;;10231445;29;20242;-80
2022/09/07 14:48:12;;;;;;;3.47;1.48;;;21.50;74.50;;;;;;10210285;29;20258;-79
2022/09/07 14:53:17;;;;;;;1.95;1.48;;;21.50;75.80;;;;;;10211677;29;20231;-80
2022/09/07 14:58:36;;;;;;;6.93;2.15;;;21.40;75.90;;;;;;10206811;29;20246;-80
2022/09/07 15:03:38;;;;;;;8.00;2.30;;;21.40;72.20;;;;;;10209387;29;20294;-80
2022/09/07 15:08:44;;;;;;;4.32;1.52;;;21.50;74.20;;;;;;10207634;29;20313;-80
2022/09/07 15:14:06;;;;;;;10.27;1.65;;;21.50;74.70;;;;;;10213414;29;20286;-80
2022/09/07 15:19:15;;;;;;;2.17;1.45;;;21.60;76.90;;;;;;10209610;29;20274;-80
2022/09/07 15:24:17;;;;;;;1.67;1.23;;;21.50;77.50;;;;;;10207838;29;20294;-80
2022/09/07 15:29:20;;;;;;;4.13;1.40;;;21.50;74.50;;;;;;10242014;28;20304;-81
2022/09/07 15:34:23;;;;;;;2.10;1.15;;;21.50;72.60;;;;;;10226989;29;20242;-80
2022/09/07 15:39:33;;;;;;;1.40;1.10;;;21.50;77.30;;;;;;10208947;29;20282;-80
2022/09/07 15:44:35;;;;;;;2.20;1.35;;;21.50;75.60;;;;;;10191279;29;20251;-80
2022/09/07 15:49:40;;;;;;;3.20;1.35;;;21.50;74.00;;;;;;10188780;29;20727;-79
2022/09/07 15:54:51;;;;;;;2.72;1.50;;;21.40;73.50;;;;;;10207279;29;20993;-83
2022/09/07 15:59:53;;;;;;;3.72;1.80;;;21.30;76.40;;;;;;10206687;29;20243;-79
2022/09/07 16:04:56;;;;;;;1.67;1.58;;;21.10;77.60;;;;;;10206325;29;20238;-79
2022/09/07 16:10:03;;;;;;;2.80;1.52;;;21.00;79.10;;;;;;10209507;29;20258;-79
2022/09/07 16:15:06;;;;;;;4.18;1.38;;;20.90;80.80;;;;;;10208220;29;20277;-82
2022/09/07 16:20:14;;;;;;;2.83;1.55;;;20.80;80.80;;;;;;10192894;29;20294;-80
2022/09/07 16:25:16;;;;;;;1.65;1.33;;;20.90;80.60;;;;;;10217809;29;20290;-81
2022/09/07 16:30:18;;;;;;;1.50;1.35;;;20.80;83.00;;;;;;10190623;29;20238;-80
2022/09/07 16:35:21;;;;;;;12.07;3.00;;;20.70;83.70;;;;;;10190701;29;20914;-80
2022/09/07 16:40:23;;;;;;;3.20;1.30;;;20.70;76.90;;;;;;10208018;29;20242;-79
2022/09/07 16:45:26;;;;;;;1.60;1.27;;;20.60;85.00;;;;;;10207505;29;20290;-79
2022/09/07 16:50:52;;;;;;;3.72;1.73;;;20.50;85.90;;;;;;10208116;29;20242;-79
2022/09/07 16:56:08;;;;;;;2.50;1.45;;;20.50;86.60;;;;;;10207657;29;20239;-79
2022/09/07 17:01:16;;;;;;;2.00;1.42;;;20.20;95.80;;;;;;10207388;29;20270;-79
2022/09/07 17:06:20;;;;;;;1.50;1.30;;;20.40;96.20;;;;;;10219771;28;20270;-80
2022/09/07 17:11:25;;;;;;;1.55;1.38;;;20.40;93.50;;;;;;10210408;29;20302;-79
2022/09/07 17:16:31;;;;;;;2.97;1.60;;;20.30;93.20;;;;;;10221199;29;20341;-81
2022/09/07 17:21:36;;;;;;;6.80;2.30;;;19.90;92.90;;;;;;10171067;29;20243;-80
2022/09/07 17:26:39;;;;;;;1.83;1.73;;;19.70;94.70;;;;;;10206921;29;20242;-80
2022/09/07 17:31:43;;;;;;;8.52;1.50;;;19.90;98.20;;;;;;10190282;29;20294;-80
2022/09/07 17:37:06;;;;;;;2.05;1.42;;;20.00;96.40;;;;;;10166972;29;20250;-80
2022/09/07 17:42:10;;;;;;;10.73;3.03;;;20.00;96.20;;;;;;10242955;29;20647;-80
2022/09/07 17:47:12;;;;;;;11.82;2.50;;;18.80;89.90;;;;;;10218284;29;20251;-80
2022/09/07 17:52:15;;;;;;;10.20;3.03;;;17.90;92.50;;;;;;10237363;29;20249;-80
2022/09/07 17:57:17;;;;;;;7.87;2.20;;;17.50;94.60;;;;;;10216158;29;20239;-81
2022/09/07 18:02:29;;;;;;;5.93;2.30;;;18.80;99.90;;;;;;10230979;29;20226;-80
2022/09/07 18:07:52;;;;;;;5.07;2.15;;;19.30;99.90;;;;;;10084995;29;20691;-80
2022/09/07 18:12:55;;;;;;;2.55;1.75;;;19.60;99.90;;;;;;10082662;29;20280;-80
2022/09/07 18:17:57;;;;;;;4.38;2.00;;;19.70;99.90;;;;;;10092604;29;20264;-80
2022/09/07 18:23:00;;;;;;;4.07;2.08;;;19.80;99.90;;;;;;10089399;29;20295;-80
2022/09/07 18:28:03;;;;;;;6.30;1.92;;;19.90;99.90;;;;;;10220985;28;20278;-80
2022/09/07 18:33:26;;;;;;;3.65;1.80;;;19.80;99.90;;;;;;10214963;29;20202;-80
2022/09/07 18:38:29;;;;;;;4.85;1.65;;;19.90;99.60;;;;;;10220985;29;20242;-81
2022/09/07 18:43:33;;;;;;;3.40;1.65;;;19.90;99.90;;;;;;10196267;29;20298;-80
2022/09/07 18:48:35;;;;;;;3.70;1.50;;;19.90;99.90;;;;;;10193625;29;20278;-80
2022/09/07 18:53:38;;;;;;;7.88;1.63;;;19.90;99.90;;;;;;10213232;29;20235;-80
2022/09/07 18:58:41;;;;;;;5.72;1.88;;;19.90;99.90;;;;;;10228026;28;20249;-80
2022/09/07 19:03:52;;;;;;;2.30;1.67;;;19.80;99.90;;;;;;10208704;29;20617;-80
2022/09/07 19:08:54;;;;;;;2.00;1.67;;;19.70;99.90;;;;;;10214563;29;20671;-80
2022/09/07 19:13:59;;;;;;;5.90;1.60;;;19.80;99.90;;;;;;10214937;29;20239;-80
2022/09/07 19:19:05;;;;;;;3.15;1.55;;;19.80;99.90;;;;;;10210313;28;20267;-80
2022/09/07 19:24:13;;;;;;;2.38;1.38;;;19.80;99.90;;;;;;10201228;29;20305;-80
2022/09/07 19:29:18;;;;;;;5.13;1.80;;;19.80;99.90;;;;;;10193626;29;20250;-80
2022/09/07 19:34:20;;;;;;;2.53;1.92;;;19.70;99.90;;;;;;10205022;29;20238;-80
2022/09/07 19:39:23;;;;;;;2.55;1.90;;;19.70;99.30;;;;;;10209585;29;20716;-80
2022/09/07 19:44:25;;;;;;;4.65;2.83;;;19.80;99.70;;;;;;10209066;29;20294;-81
2022/09/07 19:49:29;;;;;;;6.30;2.40;;;18.50;88.60;;;;;;10208573;29;20262;-80
2022/09/07 19:54:32;;;;;;;4.38;2.40;;;18.80;99.90;;;;;;10208657;29;20673;-80
2022/09/07 19:59:35;;;;;;;9.15;3.45;;;19.50;99.90;;;;;;10212483;29;20259;-82
2022/09/07 20:04:38;;;;;;;6.80;2.70;;;19.60;99.90;;;;;;10215582;29;20229;-80
2022/09/07 20:09:41;;;;;;;6.90;2.35;;;19.60;99.90;;;;;;10220106;29;20305;-85
2022/09/07 20:15:01;;;;;;;3.70;2.33;;;19.60;98.30;;;;;;10213372;29;20664;-82
2022/09/07 20:20:07;;;;;;;3.67;2.22;;;19.80;99.90;;;;;;10190837;29;20243;-80
2022/09/07 20:25:09;;;;;;;6.43;2.70;;;19.70;99.90;;;;;;10177350;29;20239;-79
2022/09/07 20:30:16;;;;;;;4.40;2.42;;;19.70;99.60;;;;;;10207766;29;20273;-80
2022/09/07 20:35:19;;;;;;;3.88;2.17;;;19.70;98.20;;;;;;10206983;28;20207;-80
2022/09/07 20:40:21;;;;;;;3.08;2.70;;;19.70;99.90;;;;;;10224505;28;20239;-79
2022/09/07 20:45:24;;;;;;;3.70;2.50;;;19.70;98.50;;;;;;10210970;29;20612;-79
2022/09/07 20:50:33;;;;;;;2.20;1.83;;;19.70;99.20;;;;;;10192343;29;20308;-80
2022/09/07 20:55:35;;;;;;;3.40;1.80;;;19.70;99.70;;;;;;10248002;29;20233;-80
2022/09/07 21:00:37;;;;;;;2.10;1.90;;;19.70;99.70;;;;;;10238296;29;20286;-80
2022/09/07 21:05:40;;;;;;;3.50;2.30;;;19.70;99.50;;;;;;10207957;29;20250;-79
2022/09/07 21:10:44;;;;;;;2.60;2.25;;;19.70;99.40;;;;;;10207623;29;20651;-85
2022/09/07 21:15:47;;;;;;;2.88;2.00;;;19.70;98.10;;;;;;10206672;29;20326;-81
2022/09/07 21:20:56;;;;;;;3.65;2.35;;;19.70;99.20;;;;;;10219539;29;20234;-81
2022/09/07 21:26:20;;;;;;;4.57;2.58;;;19.60;98.70;;;;;;10222387;29;20242;-79
2022/09/07 21:31:22;;;;;;;3.10;2.08;;;19.60;98.90;;;;;;10221913;29;20269;-80
2022/09/07 21:36:26;;;;;;;2.83;2.05;;;19.50;99.10;;;;;;10220723;29;20243;-80
2022/09/07 21:41:29;;;;;;;6.45;2.58;;;19.60;97.40;;;;;;10197785;29;20242;-80
2022/09/07 21:46:32;;;;;;;3.30;2.63;;;19.40;98.40;;;;;;10231077;28;20632;-81
2022/09/07 21:51:36;;;;;;;3.05;1.88;;;19.40;95.90;;;;;;10235347;29;20286;-81
2022/09/07 21:56:38;;;;;;;3.55;2.58;;;19.50;98.70;;;;;;10209001;28;20292;-80
2022/09/07 22:01:47;;;;;;;2.87;1.83;;;19.50;98.70;;;;;;10222167;29;20289;-81
2022/09/07 22:06:50;;;;;;;2.90;1.85;;;19.50;98.50;;;;;;10215253;29;20230;-80
2022/09/07 22:11:52;;;;;;;2.75;2.08;;;19.50;98.50;;;;;;10215542;29;20305;-80
2022/09/07 22:16:55;;;;;;;3.20;2.08;;;19.60;98.10;;;;;;10213942;29;20330;-80
2022/09/07 22:21:57;;;;;;;5.38;2.63;;;19.60;98.10;;;;;;10214135;29;20231;-81
2022/09/07 22:26:59;;;;;;;2.80;2.00;;;19.60;97.60;;;;;;10197811;29;20250;-87
2022/09/07 22:32:02;;;;;;;3.35;2.00;;;19.60;97.90;;;;;;10216953;29;20665;-85
2022/09/07 22:37:04;;;;;;;4.05;2.40;;;19.60;97.40;;;;;;10252114;28;20686;-85
2022/09/07 22:42:06;;;;;;;3.95;2.40;;;19.60;94.70;;;;;;10213199;29;20294;-85
2022/09/07 22:47:09;;;;;;;2.63;1.75;;;19.60;97.70;;;;;;10210118;29;20234;-85
2022/09/07 22:52:11;;;;;;;3.88;2.33;;;19.60;97.20;;;;;;10212972;29;20653;-85
2022/09/07 22:57:14;;;;;;;5.82;2.55;;;19.50;97.60;;;;;;10196393;29;20238;-85
2022/09/07 23:02:16;;;;;;;4.95;2.33;;;19.40;96.30;;;;;;10226606;29;20234;-84
2022/09/07 23:07:19;;;;;;;2.90;2.00;;;19.40;97.10;;;;;;10208115;29;20428;-85
2022/09/07 23:12:26;;;;;;;3.83;2.10;;;19.40;97.50;;;;;;10209142;29;20282;-84
2022/09/07 23:17:33;;;;;;;3.83;2.22;;;19.40;97.50;;;;;;10212357;29;20275;-84
2022/09/07 23:22:36;;;;;;;3.38;2.35;;;19.40;97.40;;;;;;10207535;29;20243;-84
2022/09/07 23:27:38;;;;;;;3.58;2.63;;;19.40;97.30;;;;;;10209730;29;20235;-80
2022/09/07 23:32:41;;;;;;;2.17;1.92;;;19.10;98.00;;;;;;10213196;28;20648;-80
2022/09/07 23:37:43;;;;;;;3.95;2.47;;;19.10;98.00;;;;;;10212139;29;20747;-86
2022/09/07 23:42:46;;;;;;;3.53;2.53;;;19.40;97.50;;;;;;10250408;29;20655;-81
2022/09/07 23:47:49;;;;;;;2.88;2.35;;;19.40;97.30;;;;;;10217562;29;20293;-81
2022/09/07 23:52:51;;;;;;;3.20;2.33;;;19.50;97.10;;;;;;10220631;29;20302;-81
2022/09/07 23:57:54;;;;;;;3.10;2.60;;;19.40;97.00;;;;;;10231499;28;20222;-81
